createdAt,value
2019-05-22T00:01:55.131Z,10.50
2019-05-22T00:04:26.577Z,10.50
2019-05-22T00:06:59.138Z,10.50
2019-05-22T00:09:30.864Z,10.50
2019-05-22T00:11:59.993Z,10.50
2019-05-22T00:14:31.504Z,10.50
2019-05-22T00:17:03.170Z,10.50
2019-05-22T00:19:33.919Z,10.50
2019-05-22T00:22:05.644Z,10.50
2019-05-22T00:24:37.184Z,10.50
2019-05-22T00:27:06.891Z,10.50
2019-05-22T00:29:36.610Z,10.50
2019-05-22T00:32:07.931Z,10.50
2019-05-22T00:34:40.108Z,10.50
2019-05-22T00:37:11.774Z,10.50
2019-05-22T00:39:43.624Z,10.40
2019-05-22T00:42:14.216Z,10.40
2019-05-22T00:44:47.046Z,10.40
2019-05-22T00:47:17.998Z,10.40
2019-05-22T00:49:49.719Z,10.50
2019-05-22T00:52:22.533Z,10.40
2019-05-22T00:54:55.444Z,10.50
2019-05-22T00:57:28.369Z,10.40
2019-05-22T00:59:59.860Z,10.40
2019-05-22T01:02:31.647Z,10.40
2019-05-22T01:05:02.087Z,10.40
2019-05-22T01:07:35.345Z,10.40
2019-05-22T01:10:08.971Z,10.40
2019-05-22T01:12:40.503Z,10.40
2019-05-22T01:15:12.022Z,10.40
2019-05-22T01:17:41.899Z,10.40
2019-05-22T01:20:14.706Z,10.40
2019-05-22T01:22:47.483Z,10.40
2019-05-22T01:25:20.976Z,10.40
2019-05-22T01:27:51.964Z,10.40
2019-05-22T01:30:24.435Z,10.50
2019-05-22T01:32:55.599Z,10.40
2019-05-22T01:35:28.656Z,10.40
2019-05-22T01:37:59.972Z,10.40
2019-05-22T01:40:32.748Z,10.40
2019-05-22T01:43:03.590Z,10.40
2019-05-22T01:45:33.879Z,10.40
2019-05-22T01:48:06.529Z,10.40
2019-05-22T01:50:38.782Z,10.40
2019-05-22T01:53:08.536Z,10.40
2019-05-22T01:55:38.589Z,10.40
2019-05-22T01:58:08.948Z,10.40
2019-05-22T02:00:39.585Z,10.40
2019-05-22T02:03:11.447Z,10.40
2019-05-22T02:05:44.316Z,10.30
2019-05-22T02:08:15.573Z,10.40
2019-05-22T02:10:47.214Z,10.40
2019-05-22T02:13:20.428Z,10.30
2019-05-22T02:15:50.180Z,10.30
2019-05-22T02:18:23.180Z,10.30
2019-05-22T02:20:52.846Z,10.30
2019-05-22T02:23:23.581Z,10.40
2019-05-22T02:25:53.289Z,10.40
2019-05-22T02:28:24.608Z,10.40
2019-05-22T02:30:56.206Z,10.40
2019-05-22T02:33:27.274Z,10.40
2019-05-22T02:35:57.359Z,10.30
2019-05-22T02:38:27.135Z,10.30
2019-05-22T02:40:59.800Z,10.40
2019-05-22T02:43:31.103Z,10.40
2019-05-22T02:46:02.089Z,10.40
2019-05-22T02:48:34.543Z,10.30
2019-05-22T02:51:04.679Z,10.30
2019-05-22T02:53:36.337Z,10.30
2019-05-22T02:56:08.769Z,10.30
2019-05-22T02:58:39.370Z,10.30
2019-05-22T03:01:10.373Z,10.30
2019-05-22T03:03:41.288Z,10.30
2019-05-22T03:06:12.834Z,10.30
2019-05-22T03:08:46.040Z,10.30
2019-05-22T03:11:16.144Z,10.30
2019-05-22T03:13:49.007Z,10.30
2019-05-22T03:16:18.750Z,10.30
2019-05-22T03:19:07.589Z,10.30
2019-05-22T03:21:20.379Z,10.30
2019-05-22T03:23:51.569Z,10.30
2019-05-22T03:26:24.412Z,10.30
2019-05-22T03:28:54.195Z,10.30
2019-05-22T03:31:24.557Z,10.30
2019-05-22T03:33:54.296Z,10.30
2019-05-22T03:36:24.020Z,10.30
2019-05-22T03:38:55.616Z,10.30
2019-05-22T03:41:25.898Z,10.30
2019-05-22T03:43:58.599Z,10.30
2019-05-22T03:46:32.722Z,10.30
2019-05-22T03:49:03.909Z,10.30
2019-05-22T03:51:35.253Z,10.30
2019-05-22T03:54:05.592Z,10.30
2019-05-22T03:56:38.609Z,10.30
2019-05-22T03:59:09.011Z,10.30
2019-05-22T04:01:39.363Z,10.30
2019-05-22T04:04:10.082Z,10.30
2019-05-22T04:06:41.443Z,10.30
2019-05-22T04:09:14.071Z,10.30
2019-05-22T04:11:50.058Z,10.30
2019-05-22T04:14:26.576Z,10.30
2019-05-22T04:16:57.512Z,10.30
2019-05-22T04:19:47.264Z,10.30
2019-05-22T04:22:04.810Z,10.30
2019-05-22T04:24:34.754Z,10.30
2019-05-22T04:27:06.102Z,10.30
2019-05-22T04:29:40.582Z,10.30
2019-05-22T04:32:13.324Z,10.30
2019-05-22T04:34:44.534Z,10.30
2019-05-22T04:37:15.833Z,10.40
2019-05-22T04:39:46.377Z,10.30
2019-05-22T04:42:17.448Z,10.40
2019-05-22T04:44:50.219Z,10.40
2019-05-22T04:47:20.050Z,10.40
2019-05-22T04:50:06.793Z,10.40
2019-05-22T04:52:27.292Z,10.30
2019-05-22T04:54:57.285Z,10.40
2019-05-22T04:57:27.482Z,10.40
2019-05-22T04:59:57.007Z,10.40
2019-05-22T05:02:28.051Z,10.30
2019-05-22T05:04:59.315Z,10.30
2019-05-22T05:07:29.897Z,10.40
2019-05-22T05:09:59.511Z,10.40
2019-05-22T05:12:29.882Z,10.40
2019-05-22T05:14:59.516Z,10.40
2019-05-22T05:17:29.056Z,10.40
2019-05-22T05:19:59.064Z,10.40
2019-05-22T05:22:31.731Z,10.40
2019-05-22T05:25:01.877Z,10.40
2019-05-22T05:27:33.368Z,10.40
2019-05-22T05:30:03.753Z,10.40
2019-05-22T05:32:34.004Z,10.40
2019-05-22T05:35:07.404Z,10.40
2019-05-22T05:37:38.340Z,10.40
2019-05-22T05:40:09.478Z,10.40
2019-05-22T05:42:39.776Z,10.40
2019-05-22T05:45:13.548Z,10.40
2019-05-22T05:47:43.997Z,10.40
2019-05-22T05:50:15.158Z,10.40
2019-05-22T05:52:45.238Z,10.40
2019-05-22T05:55:16.146Z,10.40
2019-05-22T05:57:48.626Z,10.40
2019-05-22T06:00:20.159Z,10.40
2019-05-22T06:02:56.576Z,10.40
2019-05-22T06:05:23.525Z,10.40
2019-05-22T06:07:53.495Z,10.40
2019-05-22T06:10:25.518Z,10.40
2019-05-22T06:12:55.179Z,10.40
2019-05-22T06:15:28.693Z,10.40
2019-05-22T06:18:02.425Z,10.40
2019-05-22T06:20:32.591Z,10.40
2019-05-22T06:23:06.876Z,10.40
2019-05-22T06:25:37.791Z,10.40
2019-05-22T06:28:07.513Z,10.40
2019-05-22T06:30:40.186Z,10.40
2019-05-22T06:33:11.667Z,10.40
2019-05-22T06:35:43.489Z,10.40
2019-05-22T06:38:16.937Z,10.40
2019-05-22T06:40:48.278Z,10.40
2019-05-22T06:43:19.550Z,10.50
2019-05-22T06:45:49.720Z,10.50
2019-05-22T06:48:25.889Z,10.50
2019-05-22T06:50:57.294Z,10.50
2019-05-22T06:53:27.004Z,10.50
2019-05-22T06:55:56.728Z,10.50
2019-05-22T06:58:26.869Z,10.50
2019-05-22T07:00:56.721Z,10.50
2019-05-22T07:03:26.370Z,10.50
2019-05-22T07:05:56.378Z,10.50
2019-05-22T07:08:26.150Z,10.50
2019-05-22T07:10:56.386Z,10.60
2019-05-22T07:13:26.714Z,10.60
2019-05-22T07:15:59.161Z,10.60
2019-05-22T07:18:32.822Z,10.60
2019-05-22T07:21:03.748Z,10.60
2019-05-22T07:23:35.202Z,10.60
2019-05-22T07:26:06.284Z,10.70
2019-05-22T07:28:36.275Z,10.70
2019-05-22T07:31:06.802Z,10.80
2019-05-22T07:33:36.477Z,10.80
2019-05-22T07:36:10.014Z,10.80
2019-05-22T07:38:37.915Z,10.80
2019-05-22T07:41:08.509Z,10.90
2019-05-22T07:43:41.347Z,10.90
2019-05-22T07:46:09.535Z,10.90
2019-05-22T07:48:46.390Z,10.90
2019-05-22T07:51:58.883Z,11.00
2019-05-22T07:54:22.281Z,11.00
2019-05-22T07:56:52.632Z,11.00
2019-05-22T07:59:22.480Z,11.00
2019-05-22T08:01:52.268Z,11.10
2019-05-22T08:04:23.900Z,11.00
2019-05-22T08:06:54.178Z,11.10
2019-05-22T08:09:24.399Z,11.10
2019-05-22T08:11:54.371Z,11.10
2019-05-22T08:14:24.732Z,11.10
2019-05-22T08:16:58.711Z,11.10
2019-05-22T08:19:28.493Z,11.10
2019-05-22T08:22:07.399Z,11.10
2019-05-22T08:24:31.317Z,11.10
2019-05-22T08:27:02.947Z,11.10
2019-05-22T08:29:32.966Z,11.20
2019-05-22T08:32:04.427Z,11.20
2019-05-22T08:34:34.328Z,11.20
2019-05-22T08:37:05.974Z,11.20
2019-05-22T08:39:37.307Z,11.20
2019-05-22T08:42:09.835Z,11.30
2019-05-22T08:44:41.850Z,11.30
2019-05-22T08:47:12.907Z,11.50
2019-05-22T08:49:42.804Z,11.50
2019-05-22T08:52:23.182Z,11.70
2019-05-22T08:54:47.483Z,11.80
2019-05-22T08:57:18.885Z,12.00
2019-05-22T08:59:48.521Z,12.10
2019-05-22T09:02:18.415Z,12.20
2019-05-22T09:04:48.465Z,12.30
2019-05-22T09:07:18.263Z,12.40
2019-05-22T09:09:57.885Z,12.40
2019-05-22T09:12:29.806Z,12.40
2019-05-22T09:14:59.505Z,12.50
2019-05-22T09:17:30.035Z,12.50
2019-05-22T09:20:00.328Z,12.50
2019-05-22T09:22:40.058Z,12.50
2019-05-22T09:25:03.289Z,12.60
2019-05-22T09:27:34.289Z,12.60
2019-05-22T09:30:06.114Z,12.70
2019-05-22T09:32:34.947Z,12.60
2019-05-22T09:35:05.956Z,12.60
2019-05-22T09:37:36.115Z,12.60
2019-05-22T09:40:07.928Z,12.50
2019-05-22T09:42:37.159Z,12.50
2019-05-22T09:45:08.409Z,12.50
2019-05-22T09:47:40.289Z,12.50
2019-05-22T09:50:11.900Z,12.50
2019-05-22T09:52:56.425Z,12.40
2019-05-22T09:55:16.625Z,12.40
2019-05-22T09:57:46.500Z,12.30
2019-05-22T10:00:19.896Z,12.30
2019-05-22T10:02:49.852Z,12.30
2019-05-22T10:05:20.241Z,12.30
2019-05-22T10:08:00.311Z,12.30
2019-05-22T10:10:22.150Z,12.20
2019-05-22T10:12:51.839Z,12.20
2019-05-22T10:15:22.280Z,12.20
2019-05-22T10:17:52.135Z,12.20
2019-05-22T10:20:23.556Z,12.30
2019-05-22T10:22:53.735Z,12.30
2019-05-22T10:25:23.716Z,12.30
2019-05-22T10:27:53.331Z,12.30
2019-05-22T10:30:24.842Z,12.40
2019-05-22T10:32:54.614Z,12.40
2019-05-22T10:35:26.066Z,12.40
2019-05-22T10:37:56.899Z,12.40
2019-05-22T10:40:26.757Z,12.40
2019-05-22T10:42:57.487Z,12.40
2019-05-22T10:45:27.777Z,12.50
2019-05-22T10:47:58.301Z,12.60
2019-05-22T10:50:28.793Z,12.70
2019-05-22T10:52:58.862Z,12.70
2019-05-22T10:55:29.314Z,12.80
2019-05-22T10:57:59.550Z,12.80
2019-05-22T11:00:29.877Z,12.90
2019-05-22T11:02:59.669Z,13.00
2019-05-22T11:05:29.865Z,13.00
2019-05-22T11:07:59.865Z,13.00
2019-05-22T11:10:30.072Z,13.00
2019-05-22T11:13:00.261Z,13.00
2019-05-22T11:15:29.927Z,13.20
2019-05-22T11:17:59.800Z,13.30
2019-05-22T11:20:30.198Z,13.30
2019-05-22T11:22:59.900Z,13.40
2019-05-22T11:25:29.510Z,13.40
2019-05-22T11:27:59.319Z,13.30
2019-05-22T11:30:29.676Z,13.20
2019-05-22T11:33:01.787Z,13.20
2019-05-22T11:35:33.254Z,13.20
2019-05-22T11:38:03.075Z,13.30
2019-05-22T11:40:33.224Z,13.40
2019-05-22T11:43:03.583Z,13.40
2019-05-22T11:45:33.313Z,13.50
2019-05-22T11:48:03.749Z,13.50
2019-05-22T11:50:34.696Z,13.60
2019-05-22T11:53:04.834Z,13.60
2019-05-22T11:55:45.165Z,13.70
2019-05-22T11:58:08.016Z,13.70
2019-05-22T12:00:37.677Z,13.70
2019-05-22T12:03:07.949Z,13.80
2019-05-22T12:05:38.138Z,14.00
2019-05-22T12:08:08.272Z,14.20
2019-05-22T12:10:38.816Z,14.40
2019-05-22T12:13:09.687Z,14.50
2019-05-22T12:15:39.486Z,14.60
2019-05-22T12:18:11.962Z,14.60
2019-05-22T12:20:42.080Z,14.60
2019-05-22T12:23:11.813Z,14.50
2019-05-22T12:25:41.925Z,14.40
2019-05-22T12:28:11.708Z,14.30
2019-05-22T12:30:41.651Z,14.30
2019-05-22T12:33:13.696Z,14.20
2019-05-22T12:35:44.240Z,14.10
2019-05-22T12:38:15.389Z,14.10
2019-05-22T12:40:45.626Z,14.10
2019-05-22T12:43:16.355Z,14.10
2019-05-22T12:45:46.223Z,14.20
2019-05-22T12:48:16.022Z,14.20
2019-05-22T12:50:45.844Z,14.20
2019-05-22T12:53:16.934Z,14.10
2019-05-22T12:55:46.988Z,14.00
2019-05-22T12:58:16.639Z,14.00
2019-05-22T13:00:46.660Z,13.90
2019-05-22T13:03:18.353Z,13.70
2019-05-22T13:05:50.006Z,13.70
2019-05-22T13:08:23.831Z,13.70
2019-05-22T13:10:54.867Z,13.60
2019-05-22T13:13:27.066Z,13.60
2019-05-22T13:15:59.714Z,13.60
2019-05-22T13:18:33.139Z,13.60
2019-05-22T13:21:05.733Z,13.60
2019-05-22T13:23:39.015Z,13.50
2019-05-22T13:26:10.722Z,13.50
2019-05-22T13:28:43.390Z,13.40
2019-05-22T13:31:13.831Z,13.40
2019-05-22T13:33:44.831Z,13.40
2019-05-22T13:36:16.477Z,13.40
2019-05-22T13:38:47.453Z,13.40
2019-05-22T13:41:17.668Z,13.40
2019-05-22T13:43:48.067Z,13.50
2019-05-22T13:46:19.337Z,13.50
2019-05-22T13:48:49.490Z,13.50
2019-05-22T13:51:19.410Z,13.50
2019-05-22T13:53:49.837Z,13.60
2019-05-22T13:56:19.677Z,13.60
2019-05-22T13:58:49.897Z,13.60
2019-05-22T14:01:21.818Z,13.60
2019-05-22T14:03:51.716Z,13.70
2019-05-22T14:06:22.066Z,13.70
2019-05-22T14:08:52.102Z,13.70
2019-05-22T14:11:22.634Z,13.60
2019-05-22T14:13:53.433Z,13.60
2019-05-22T14:16:23.347Z,13.70
2019-05-22T14:18:53.047Z,13.70
2019-05-22T14:21:22.900Z,13.90
2019-05-22T14:23:52.566Z,14.00
2019-05-22T14:26:22.665Z,14.10
2019-05-22T14:28:52.586Z,14.10
2019-05-22T14:31:22.399Z,14.10
2019-05-22T14:33:52.520Z,14.10
2019-05-22T14:36:23.200Z,14.00
2019-05-22T14:38:54.099Z,13.90
2019-05-22T14:41:25.458Z,13.90
2019-05-22T14:43:55.258Z,13.70
2019-05-22T14:46:25.395Z,13.60
2019-05-22T14:49:05.836Z,13.60
2019-05-22T14:51:35.640Z,13.50
2019-05-22T14:54:08.199Z,13.50
2019-05-22T14:56:38.154Z,13.60
2019-05-22T14:59:07.859Z,13.60
2019-05-22T15:01:37.756Z,13.60
2019-05-22T15:04:07.561Z,13.50
2019-05-22T15:06:38.383Z,13.50
2019-05-22T15:09:10.586Z,13.50
2019-05-22T15:11:42.035Z,13.40
2019-05-22T15:14:11.718Z,13.40
2019-05-22T15:16:41.845Z,13.40
2019-05-22T15:19:12.072Z,13.40
2019-05-22T15:21:42.020Z,13.50
2019-05-22T15:24:12.765Z,13.50
2019-05-22T15:26:43.779Z,13.60
2019-05-22T15:29:15.620Z,13.60
2019-05-22T15:31:45.074Z,13.60
2019-05-22T15:34:15.535Z,13.60
2019-05-22T15:36:46.215Z,13.60
2019-05-22T15:39:20.431Z,13.60
2019-05-22T15:41:50.201Z,13.50
2019-05-22T15:44:20.819Z,13.50
2019-05-22T15:46:51.094Z,13.40
2019-05-22T15:49:21.305Z,13.50
2019-05-22T15:51:52.277Z,13.50
2019-05-22T15:54:24.178Z,13.50
2019-05-22T15:56:55.104Z,13.40
2019-05-22T15:59:25.979Z,13.40
2019-05-22T16:01:56.716Z,13.40
2019-05-22T16:04:28.480Z,13.30
2019-05-22T16:06:57.302Z,13.30
2019-05-22T16:09:29.439Z,13.40
2019-05-22T16:11:59.325Z,13.40
2019-05-22T16:14:31.619Z,13.40
2019-05-22T16:17:02.249Z,13.40
2019-05-22T16:19:32.923Z,13.40
2019-05-22T16:22:05.646Z,13.40
2019-05-22T16:24:36.182Z,13.50
2019-05-22T16:27:10.249Z,13.50
2019-05-22T16:29:40.690Z,13.40
2019-05-22T16:32:12.317Z,13.40
2019-05-22T16:34:42.334Z,13.30
2019-05-22T16:37:13.538Z,13.30
2019-05-22T16:39:43.128Z,13.20
2019-05-22T16:42:13.057Z,13.20
2019-05-22T16:44:42.944Z,13.10
2019-05-22T16:47:13.366Z,13.10
2019-05-22T16:49:43.336Z,13.10
2019-05-22T16:52:14.416Z,13.10
2019-05-22T16:54:45.909Z,13.10
2019-05-22T16:57:17.317Z,13.20
2019-05-22T16:59:47.748Z,13.20
2019-05-22T17:02:19.109Z,13.20
2019-05-22T17:04:49.649Z,13.30
2019-05-22T17:07:28.238Z,13.30
2019-05-22T17:09:59.478Z,13.30
2019-05-22T17:12:30.437Z,13.20
2019-05-22T17:15:02.425Z,13.20
2019-05-22T17:17:32.354Z,13.20
2019-05-22T17:20:05.305Z,13.20
2019-05-22T17:22:34.933Z,13.20
2019-05-22T17:25:09.040Z,13.10
2019-05-22T17:27:41.046Z,13.10
2019-05-22T17:30:12.739Z,13.00
2019-05-22T17:32:43.906Z,13.00
2019-05-22T17:35:15.991Z,13.00
2019-05-22T17:37:46.227Z,13.00
2019-05-22T17:40:19.117Z,12.90
2019-05-22T17:42:51.436Z,12.80
2019-05-22T17:45:28.429Z,12.80
2019-05-22T17:47:59.275Z,12.70
2019-05-22T17:50:29.785Z,12.70
2019-05-22T17:53:00.696Z,12.70
2019-05-22T17:55:30.291Z,12.60
2019-05-22T17:58:00.555Z,12.60
2019-05-22T18:00:31.957Z,12.50
2019-05-22T18:03:02.148Z,12.50
2019-05-22T18:05:33.751Z,12.50
2019-05-22T18:08:04.844Z,12.40
2019-05-22T18:10:40.453Z,12.40
2019-05-22T18:13:10.471Z,12.40
2019-05-22T18:15:40.656Z,12.40
2019-05-22T18:18:11.591Z,12.30
2019-05-22T18:20:43.994Z,12.30
2019-05-22T18:23:12.491Z,12.20
2019-05-22T18:25:44.312Z,12.20
2019-05-22T18:28:14.591Z,12.20
2019-05-22T18:30:44.772Z,12.10
2019-05-22T18:33:14.493Z,12.10
2019-05-22T18:35:44.228Z,12.10
2019-05-22T18:38:13.972Z,12.10
2019-05-22T18:40:43.912Z,12.00
2019-05-22T18:43:13.612Z,12.00
2019-05-22T18:45:43.481Z,11.90
2019-05-22T18:48:13.484Z,11.90
2019-05-22T18:50:43.451Z,11.80
2019-05-22T18:53:13.303Z,11.70
2019-05-22T18:55:42.992Z,11.70
2019-05-22T18:58:12.933Z,11.60
2019-05-22T19:00:42.706Z,11.60
2019-05-22T19:03:13.308Z,11.50
2019-05-22T19:05:43.975Z,11.50
2019-05-22T19:08:13.703Z,11.40
2019-05-22T19:10:43.468Z,11.40
2019-05-22T19:13:14.688Z,11.40
2019-05-22T19:15:44.813Z,11.40
2019-05-22T19:18:14.596Z,11.30
2019-05-22T19:20:44.800Z,11.30
2019-05-22T19:23:15.072Z,11.30
2019-05-22T19:25:44.691Z,11.30
2019-05-22T19:28:14.457Z,11.30
2019-05-22T19:30:44.175Z,11.30
2019-05-22T19:33:14.990Z,11.30
2019-05-22T19:35:44.709Z,11.20
2019-05-22T19:38:14.423Z,11.20
2019-05-22T19:40:44.185Z,11.20
2019-05-22T19:43:14.038Z,11.20
2019-05-22T19:45:44.067Z,11.20
2019-05-22T19:48:14.486Z,11.20
2019-05-22T19:50:45.894Z,11.10
2019-05-22T19:53:19.193Z,11.10
2019-05-22T19:55:52.159Z,11.20
2019-05-22T19:58:24.017Z,11.10
2019-05-22T20:00:53.930Z,11.10
2019-05-22T20:03:23.986Z,11.10
2019-05-22T20:05:54.175Z,11.10
2019-05-22T20:08:24.265Z,11.10
2019-05-22T20:10:55.617Z,11.00
2019-05-22T20:13:25.380Z,11.00
2019-05-22T20:15:55.399Z,10.90
2019-05-22T20:18:25.139Z,10.90
2019-05-22T20:20:54.645Z,10.90
2019-05-22T20:23:35.459Z,10.90
2019-05-22T20:25:55.973Z,10.90
2019-05-22T20:28:26.856Z,10.90
2019-05-22T20:30:57.789Z,10.90
2019-05-22T20:33:27.422Z,10.80
2019-05-22T20:35:57.132Z,10.80
2019-05-22T20:38:27.769Z,10.70
2019-05-22T20:40:57.403Z,10.70
2019-05-22T20:43:28.015Z,10.70
2019-05-22T20:45:59.571Z,10.70
2019-05-22T20:48:30.198Z,10.70
2019-05-22T20:51:01.194Z,10.70
2019-05-22T20:53:32.991Z,10.70
2019-05-22T20:56:02.308Z,10.60
2019-05-22T20:58:32.582Z,10.60
2019-05-22T21:01:10.380Z,10.50
2019-05-22T21:03:44.135Z,10.50
2019-05-22T21:06:15.455Z,10.40
2019-05-22T21:08:46.565Z,10.30
2019-05-22T21:11:18.273Z,10.30
2019-05-22T21:13:49.201Z,10.20
2019-05-22T21:16:21.018Z,10.20
2019-05-22T21:18:53.218Z,10.10
2019-05-22T21:21:25.302Z,10.10
2019-05-22T21:24:09.466Z,10.00
2019-05-22T21:26:26.577Z,9.90
2019-05-22T21:28:57.246Z,9.80
2019-05-22T21:31:27.352Z,9.70
2019-05-22T21:33:57.399Z,9.60
2019-05-22T21:36:28.012Z,9.50
2019-05-22T21:38:58.281Z,9.50
2019-05-22T21:41:28.685Z,9.40
2019-05-22T21:43:58.973Z,9.40
2019-05-22T21:46:28.553Z,9.30
2019-05-22T21:48:59.829Z,9.30
2019-05-22T21:51:29.786Z,9.20
2019-05-22T21:53:59.425Z,9.20
2019-05-22T21:56:29.965Z,9.20
2019-05-22T21:58:59.618Z,9.10
2019-05-22T22:01:33.263Z,9.10
2019-05-22T22:04:06.653Z,9.10
2019-05-22T22:06:36.309Z,9.10
2019-05-22T22:09:08.435Z,9.00
2019-05-22T22:11:38.668Z,8.90
2019-05-22T22:14:09.460Z,8.80
2019-05-22T22:16:41.302Z,8.80
2019-05-22T22:19:10.789Z,8.70
2019-05-22T22:21:40.767Z,8.70
2019-05-22T22:24:11.070Z,8.70
2019-05-22T22:26:40.983Z,8.70
2019-05-22T22:29:11.171Z,8.70
2019-05-22T22:31:42.059Z,8.70
2019-05-22T22:34:15.240Z,8.80
2019-05-22T22:36:46.003Z,8.80
2019-05-22T22:39:17.656Z,8.80
2019-05-22T22:41:48.181Z,8.90
2019-05-22T22:44:19.023Z,8.90
2019-05-22T22:46:50.675Z,8.90
2019-05-22T22:49:21.480Z,8.90
2019-05-22T22:51:53.353Z,9.00
2019-05-22T22:54:23.837Z,9.00
2019-05-22T22:56:53.503Z,9.00
2019-05-22T22:59:23.545Z,9.00
2019-05-22T23:01:56.197Z,9.00
2019-05-22T23:04:28.597Z,9.00
2019-05-22T23:07:01.282Z,9.00
2019-05-22T23:09:32.102Z,9.00
2019-05-22T23:12:03.939Z,9.00
2019-05-22T23:14:34.072Z,9.00
2019-05-22T23:17:05.696Z,9.00
2019-05-22T23:19:35.987Z,9.00
2019-05-22T23:22:05.720Z,8.90
2019-05-22T23:24:38.299Z,8.90
2019-05-22T23:27:08.709Z,8.90
2019-05-22T23:29:38.935Z,8.80
2019-05-22T23:32:09.550Z,8.80
2019-05-22T23:34:40.715Z,8.80
2019-05-22T23:37:10.869Z,8.80
2019-05-22T23:39:40.983Z,8.70
2019-05-22T23:42:14.365Z,8.80
2019-05-22T23:44:46.280Z,8.70
2019-05-22T23:47:15.951Z,8.70
2019-05-22T23:49:46.038Z,8.70
2019-05-22T23:52:17.614Z,8.70
2019-05-22T23:54:49.180Z,8.70
2019-05-22T23:57:20.173Z,8.70
2019-05-22T23:59:52.598Z,8.70
